Time;durP1;ratioP1;P1;durP2;ratioP2;P2;SDS_P1;SDS_P2;PMS_P1;PMS_P2;Temp;Humidity;BMP_temperature;BMP_pressure;BME280_temperature;BME280_humidity;BME280_pressure;Samples;Min_cycle;Max_cycle;Signal;HPM_P1;HPM_P2
2024/01/06 00:01:23;;;;;;;59.80;34.50;;;;;;;0.82;77.47;98208.54;105126;1259;96658;-73
2024/01/06 00:03:51;;;;;;;59.90;33.20;;;;;;;0.84;77.43;98206.89;105136;1257;96536;-74
2024/01/06 00:06:19;;;;;;;59.70;32.00;;;;;;;0.84;77.13;98210.34;105240;1257;109374;-73
2024/01/06 00:08:53;;;;;;;54.40;30.40;;;;;;;0.86;77.37;98211.52;105521;1254;96590;-73
2024/01/06 00:11:22;;;;;;;60.70;35.00;;;;;;;0.86;77.21;98210.95;105340;1256;108409;-74
2024/01/06 00:13:50;;;;;;;56.70;30.30;;;;;;;0.86;77.26;98215.52;105519;1256;97958;-72
2024/01/06 00:16:21;;;;;;;54.70;27.90;;;;;;;0.83;77.36;98217.89;105252;1257;96744;-74
2024/01/06 00:18:50;;;;;;;62.10;32.00;;;;;;;0.83;77.43;98216.19;105500;1252;109564;-73
2024/01/06 00:21:19;;;;;;;61.10;32.80;;;;;;;0.82;77.26;98216.95;106516;1253;96582;-73
2024/01/06 00:23:47;;;;;;;58.50;33.70;;;;;;;0.80;77.35;98220.17;105282;1259;105572;-73
2024/01/06 00:26:14;;;;;;;59.90;33.50;;;;;;;0.79;77.46;98222.11;105259;1254;96619;-74
2024/01/06 00:28:42;;;;;;;58.70;33.70;;;;;;;0.80;77.41;98223.15;105469;1255;96578;-74
2024/01/06 00:31:10;;;;;;;60.80;33.40;;;;;;;0.81;77.50;98220.10;105441;1256;109905;-73
2024/01/06 00:33:38;;;;;;;58.50;34.20;;;;;;;0.81;77.40;98215.59;105426;1256;96626;-74
2024/01/06 00:36:07;;;;;;;58.10;32.20;;;;;;;0.81;77.30;98217.81;105523;1256;107302;-72
2024/01/06 00:38:35;;;;;;;51.40;30.40;;;;;;;0.82;77.75;98219.36;105477;1256;96702;-73
2024/01/06 00:41:03;;;;;;;54.50;30.60;;;;;;;0.82;77.35;98221.44;105253;1256;96682;-74
2024/01/06 00:43:31;;;;;;;55.30;31.90;;;;;;;0.84;77.50;98219.59;105418;1256;109906;-74
2024/01/06 00:45:59;;;;;;;56.90;32.70;;;;;;;0.85;77.51;98223.24;105181;1254;97819;-73
2024/01/06 00:48:27;;;;;;;58.80;34.10;;;;;;;0.82;77.39;98217.79;105414;1268;107233;-73
2024/01/06 00:50:55;;;;;;;58.10;32.30;;;;;;;0.82;77.64;98217.43;105480;1256;96697;-72
2024/01/06 00:53:22;;;;;;;57.80;32.90;;;;;;;0.84;77.70;98223.11;105584;1256;96665;-74
2024/01/06 00:55:50;;;;;;;54.00;31.20;;;;;;;0.86;77.55;98220.77;105520;1255;108635;-73
2024/01/06 00:58:18;;;;;;;57.90;34.20;;;;;;;0.88;77.56;98222.73;105522;1256;96712;-74
2024/01/06 01:00:46;;;;;;;63.80;33.50;;;;;;;0.89;77.55;98220.77;105433;1260;108646;-75
2024/01/06 01:03:14;;;;;;;58.30;32.50;;;;;;;0.89;77.59;98217.12;105647;1256;96622;-73
2024/01/06 01:05:42;;;;;;;62.50;35.50;;;;;;;0.88;77.88;98219.63;105555;1255;96524;-74
2024/01/06 01:08:10;;;;;;;57.10;33.60;;;;;;;0.87;77.68;98219.81;105574;1256;109322;-75
2024/01/06 01:10:38;;;;;;;55.10;31.60;;;;;;;0.91;77.57;98225.05;105457;1253;97855;-74
2024/01/06 01:13:06;;;;;;;57.60;31.50;;;;;;;0.95;77.67;98221.20;105520;1254;106742;-74
2024/01/06 01:15:34;;;;;;;57.60;33.60;;;;;;;1.01;77.69;98218.81;105515;1256;96744;-74
2024/01/06 01:18:03;;;;;;;54.70;32.80;;;;;;;1.04;77.68;98218.16;105596;1253;96619;-75
2024/01/06 01:20:30;;;;;;;58.30;33.00;;;;;;;1.07;77.63;98226.93;105509;1256;109895;-74
2024/01/06 01:22:58;;;;;;;54.30;30.80;;;;;;;1.11;77.56;98225.50;105437;1256;96713;-76
2024/01/06 01:25:26;;;;;;;56.70;33.50;;;;;;;1.13;77.54;98219.14;105179;1256;107605;-74
2024/01/06 01:27:54;;;;;;;62.60;35.70;;;;;;;1.13;77.53;98216.70;105196;1254;96607;-72
2024/01/06 01:30:22;;;;;;;57.10;32.30;;;;;;;1.15;77.82;98208.02;105483;1254;96619;-72
2024/01/06 01:32:50;;;;;;;57.10;34.10;;;;;;;1.17;77.93;98204.31;105551;1256;110520;-74
2024/01/06 01:35:19;;;;;;;58.90;33.20;;;;;;;1.19;77.55;98202.08;105467;1254;96548;-74
2024/01/06 01:37:46;;;;;;;55.50;32.20;;;;;;;1.22;77.48;98198.97;105418;1265;107580;-75
2024/01/06 01:40:14;;;;;;;54.10;31.70;;;;;;;1.26;77.65;98200.34;105188;1256;96603;-75
2024/01/06 01:42:43;;;;;;;56.40;33.30;;;;;;;1.28;77.78;98201.85;105168;1256;96690;-73
2024/01/06 01:45:11;;;;;;;51.90;29.80;;;;;;;1.28;77.64;98195.91;105647;1257;109941;-74
2024/01/06 01:47:40;;;;;;;56.80;32.50;;;;;;;1.29;77.70;98194.62;105557;1256;96698;-74
2024/01/06 01:50:10;;;;;;;55.40;33.40;;;;;;;1.31;77.90;98194.86;105410;1257;107648;-74
2024/01/06 01:52:40;;;;;;;51.90;30.60;;;;;;;1.35;77.94;98197.48;105444;1256;96702;-74
2024/01/06 01:55:08;;;;;;;55.80;32.30;;;;;;;1.38;77.90;98193.85;105571;1256;96434;-73
2024/01/06 01:57:37;;;;;;;56.20;31.90;;;;;;;1.39;77.85;98194.83;105564;1257;109472;-72
2024/01/06 02:00:06;;;;;;;55.70;31.30;;;;;;;1.39;77.87;98190.29;105484;1254;96526;-73
2024/01/06 02:02:34;;;;;;;58.30;34.60;;;;;;;1.38;77.95;98188.59;105562;1254;108189;-75
2024/01/06 02:05:03;;;;;;;56.80;33.00;;;;;;;1.36;77.82;98197.77;105428;1257;97842;-74
2024/01/06 02:07:31;;;;;;;57.80;32.20;;;;;;;1.36;77.78;98201.47;105474;1254;96603;-73
2024/01/06 02:09:58;;;;;;;54.50;31.20;;;;;;;1.38;77.59;98207.31;105486;1254;109530;-74
2024/01/06 02:12:26;;;;;;;54.80;30.70;;;;;;;1.40;77.69;98204.59;104967;1266;96627;-74
2024/01/06 02:14:54;;;;;;;59.00;33.90;;;;;;;1.44;78.08;98201.95;105455;1256;108262;-73
2024/01/06 02:17:22;;;;;;;56.00;31.60;;;;;;;1.44;77.79;98191.63;105203;1254;96777;-74
2024/01/06 02:19:50;;;;;;;59.80;30.10;;;;;;;1.40;77.75;98185.88;105213;1257;96597;-73
2024/01/06 02:22:18;;;;;;;55.30;30.50;;;;;;;1.39;78.04;98186.30;105413;1255;108755;-74
2024/01/06 02:24:46;;;;;;;55.00;31.70;;;;;;;1.35;77.74;98186.48;105660;1255;97253;-72
2024/01/06 02:27:14;;;;;;;51.00;29.50;;;;;;;1.32;77.83;98187.65;105239;1254;107166;-75
2024/01/06 02:29:42;;;;;;;52.40;28.50;;;;;;;1.33;77.92;98192.12;105368;1256;96686;-74
2024/01/06 02:32:10;;;;;;;53.30;29.20;;;;;;;1.34;77.79;98195.41;105499;1254;97443;-72
2024/01/06 02:34:38;;;;;;;55.40;28.20;;;;;;;1.35;77.75;98194.16;105398;1253;109587;-74
2024/01/06 02:37:06;;;;;;;51.30;29.40;;;;;;;1.37;77.85;98186.20;105398;1257;96678;-73
2024/01/06 02:39:34;;;;;;;48.00;28.90;;;;;;;1.37;78.02;98181.13;105167;1257;107331;-74
2024/01/06 02:42:02;;;;;;;52.90;28.10;;;;;;;1.39;77.84;98175.28;105165;1257;97637;-74
2024/01/06 02:44:30;;;;;;;53.70;29.30;;;;;;;1.41;77.94;98167.32;105492;1254;96626;-72
2024/01/06 02:46:57;;;;;;;53.10;28.10;;;;;;;1.43;78.07;98166.34;105331;1270;109658;-73
2024/01/06 02:49:25;;;;;;;50.30;27.60;;;;;;;1.45;77.96;98156.95;106178;1256;96594;-74
2024/01/06 02:51:53;;;;;;;50.50;29.00;;;;;;;1.47;78.08;98160.53;105428;1256;107133;-72
2024/01/06 02:54:21;;;;;;;50.60;30.60;;;;;;;1.48;78.00;98162.77;105431;1259;96618;-74
2024/01/06 02:56:49;;;;;;;57.30;30.70;;;;;;;1.51;78.28;98164.90;105429;1256;96612;-74
2024/01/06 02:59:17;;;;;;;53.30;30.60;;;;;;;1.55;78.18;98161.73;105266;1256;109875;-73
2024/01/06 03:01:45;;;;;;;52.30;29.50;;;;;;;1.58;77.90;98164.58;105705;1255;96804;-75
2024/01/06 03:04:12;;;;;;;52.90;30.30;;;;;;;1.60;78.13;98166.36;105285;1257;107626;-74
2024/01/06 03:06:40;;;;;;;54.30;29.00;;;;;;;1.63;78.46;98157.63;105544;1257;97544;-73
2024/01/06 03:09:08;;;;;;;49.20;27.50;;;;;;;1.62;78.25;98163.83;105577;1257;96606;-73
2024/01/06 03:11:36;;;;;;;49.20;28.10;;;;;;;1.64;78.17;98157.27;105476;1265;109940;-74
2024/01/06 03:14:04;;;;;;;49.20;28.10;;;;;;;1.68;78.19;98155.14;105440;1256;96594;-74
2024/01/06 03:16:33;;;;;;;49.70;26.60;;;;;;;1.71;78.16;98154.81;105465;1255;108262;-74
2024/01/06 03:19:01;;;;;;;46.40;26.00;;;;;;;1.74;78.49;98158.70;105310;1256;96588;-74
2024/01/06 03:21:29;;;;;;;46.50;27.30;;;;;;;1.77;78.49;98152.73;105327;1257;96590;-74
2024/01/06 03:23:57;;;;;;;47.00;25.60;;;;;;;1.82;78.21;98152.86;105507;1256;109895;-75
2024/01/06 03:26:25;;;;;;;44.30;25.20;;;;;;;1.83;78.37;98146.67;105490;1256;96568;-74
2024/01/06 03:28:54;;;;;;;47.80;27.30;;;;;;;1.85;78.53;98147.13;105525;1256;107885;-74
2024/01/06 03:31:22;;;;;;;48.70;25.80;;;;;;;1.85;78.51;98147.46;105360;1256;97945;-74
2024/01/06 03:33:53;;;;;;;49.40;27.40;;;;;;;1.83;78.33;98145.66;105660;1254;97935;-74
2024/01/06 03:36:21;;;;;;;43.00;25.80;;;;;;;1.84;78.44;98146.46;105530;1259;110001;-74
2024/01/06 03:38:49;;;;;;;45.90;25.40;;;;;;;1.87;78.23;98148.05;105728;1256;96567;-74
2024/01/06 03:41:17;;;;;;;51.00;27.30;;;;;;;1.88;78.58;98152.70;105543;1253;107681;-74
2024/01/06 03:43:45;;;;;;;44.90;25.80;;;;;;;1.91;78.33;98156.05;105274;1256;96596;-74
2024/01/06 03:46:13;;;;;;;44.70;25.10;;;;;;;1.91;78.41;98158.83;105244;1254;96551;-72
2024/01/06 03:48:40;;;;;;;44.10;24.40;;;;;;;1.95;78.34;98167.98;105503;1256;108998;-75
2024/01/06 03:51:09;;;;;;;45.60;25.40;;;;;;;1.94;78.28;98166.90;105605;1256;96679;-72
2024/01/06 03:53:37;;;;;;;47.20;26.00;;;;;;;1.92;78.63;98167.34;105536;1257;107299;-73
2024/01/06 03:56:05;;;;;;;45.20;24.80;;;;;;;1.91;78.48;98163.73;105321;1256;96609;-74
2024/01/06 03:58:33;;;;;;;46.60;25.20;;;;;;;1.88;78.42;98160.23;105602;1254;97833;-73
2024/01/06 04:01:01;;;;;;;49.80;27.10;;;;;;;1.82;78.56;98159.82;105453;1256;109883;-75
2024/01/06 04:03:29;;;;;;;44.40;25.20;;;;;;;1.78;78.25;98162.68;105295;1257;96666;-74
2024/01/06 04:05:57;;;;;;;46.60;24.10;;;;;;;1.77;78.48;98168.65;105481;1257;107303;-72
2024/01/06 04:08:25;;;;;;;44.60;24.30;;;;;;;1.76;78.43;98175.71;105427;1257;96626;-75
2024/01/06 04:10:53;;;;;;;49.50;26.60;;;;;;;1.76;78.18;98177.09;105531;1257;97060;-74
2024/01/06 04:13:21;;;;;;;48.10;26.20;;;;;;;1.75;78.19;98169.65;105350;1255;109851;-74
2024/01/06 04:15:48;;;;;;;45.80;23.60;;;;;;;1.71;78.19;98164.09;105225;1257;97071;-73
2024/01/06 04:18:16;;;;;;;47.20;24.50;;;;;;;1.71;78.57;98165.45;105460;1265;107884;-77
2024/01/06 04:20:44;;;;;;;44.90;24.80;;;;;;;1.73;78.56;98170.79;105432;1256;96619;-73
2024/01/06 04:23:12;;;;;;;46.70;25.30;;;;;;;1.74;78.57;98180.52;105510;1256;96570;-74
2024/01/06 04:25:40;;;;;;;45.00;23.50;;;;;;;1.78;78.30;98183.30;105511;1254;109368;-74
2024/01/06 04:28:08;;;;;;;42.90;24.80;;;;;;;1.82;78.56;98184.51;105251;1270;96665;-72
2024/01/06 04:30:36;;;;;;;42.70;23.50;;;;;;;1.83;78.44;98184.97;105494;1256;107590;-75
2024/01/06 04:33:04;;;;;;;41.60;22.40;;;;;;;1.83;78.63;98181.11;105524;1259;96615;-74
2024/01/06 04:35:32;;;;;;;42.00;23.00;;;;;;;1.84;78.47;98179.86;105460;1257;96568;-75
2024/01/06 04:37:59;;;;;;;45.60;24.20;;;;;;;1.84;78.48;98179.14;105586;1255;110014;-73
2024/01/06 04:40:27;;;;;;;46.60;25.30;;;;;;;1.85;78.43;98168.44;105248;1266;97828;-74
2024/01/06 04:42:55;;;;;;;46.70;24.80;;;;;;;1.87;78.57;98164.50;105283;1266;107321;-73
2024/01/06 04:45:24;;;;;;;45.40;23.10;;;;;;;1.87;78.56;98165.20;105491;1256;96620;-74
2024/01/06 04:47:52;;;;;;;47.30;25.00;;;;;;;1.88;78.78;98162.86;105585;1254;96603;-73
2024/01/06 04:50:20;;;;;;;49.60;24.90;;;;;;;1.90;78.62;98165.17;105720;1256;109923;-74
2024/01/06 04:52:48;;;;;;;45.60;23.10;;;;;;;1.91;78.69;98164.25;105769;1256;97963;-73
2024/01/06 04:55:16;;;;;;;44.50;22.80;;;;;;;1.94;78.26;98164.14;105500;1262;108211;-73
2024/01/06 04:57:44;;;;;;;45.20;24.60;;;;;;;1.98;78.69;98164.12;105643;1254;96567;-72
2024/01/06 05:00:12;;;;;;;48.10;25.90;;;;;;;2.02;78.56;98164.78;105684;1256;97935;-74
2024/01/06 05:02:41;;;;;;;43.20;23.50;;;;;;;2.06;78.76;98168.41;105414;1257;109892;-74
2024/01/06 05:05:09;;;;;;;43.70;23.80;;;;;;;2.08;78.75;98172.14;105586;1264;96490;-74
2024/01/06 05:07:37;;;;;;;45.80;25.10;;;;;;;2.10;78.57;98168.56;105616;1256;107084;-74
2024/01/06 05:10:05;;;;;;;45.70;24.30;;;;;;;2.11;78.93;98165.53;105214;1257;97891;-74
2024/01/06 05:12:33;;;;;;;48.70;24.20;;;;;;;2.12;78.65;98163.03;105452;1257;96599;-73
2024/01/06 05:15:01;;;;;;;47.50;25.20;;;;;;;2.12;78.41;98162.30;105536;1257;109890;-74
2024/01/06 05:17:29;;;;;;;43.80;24.30;;;;;;;2.14;78.48;98154.38;105273;1265;97447;-75
2024/01/06 05:19:57;;;;;;;40.20;21.90;;;;;;;2.14;78.73;98147.36;105617;1275;107646;-74
2024/01/06 05:22:25;;;;;;;41.40;23.70;;;;;;;2.16;78.57;98152.50;105267;1256;96606;-73
2024/01/06 05:24:53;;;;;;;41.40;22.40;;;;;;;2.14;78.64;98157.84;105447;1256;96642;-73
2024/01/06 05:27:21;;;;;;;44.00;23.90;;;;;;;2.10;78.49;98162.09;105458;1256;110538;-73
2024/01/06 05:29:51;;;;;;;41.30;22.20;;;;;;;2.05;78.73;98165.63;105188;1257;96590;-73
2024/01/06 05:32:20;;;;;;;42.40;22.60;;;;;;;2.07;78.63;98169.73;105307;1259;107646;-72
2024/01/06 05:34:49;;;;;;;44.50;24.70;;;;;;;2.10;78.66;98172.05;105503;1256;96690;-74
2024/01/06 05:37:17;;;;;;;38.40;20.70;;;;;;;2.12;78.69;98172.31;105409;1256;97274;-74
2024/01/06 05:39:45;;;;;;;40.00;20.90;;;;;;;2.15;78.90;98164.41;105454;1255;109897;-74
2024/01/06 05:42:12;;;;;;;42.40;23.60;;;;;;;2.19;78.94;98159.32;105180;1256;97521;-73
2024/01/06 05:44:41;;;;;;;45.60;24.80;;;;;;;2.21;78.91;98157.44;105259;1254;107202;-74
2024/01/06 05:47:09;;;;;;;44.80;23.30;;;;;;;2.22;78.88;98160.08;105433;1255;96612;-74
2024/01/06 05:49:42;;;;;;;41.60;22.60;;;;;;;2.20;78.84;98165.02;105490;1261;96674;-73
2024/01/06 05:52:10;;;;;;;39.20;22.50;;;;;;;2.24;78.68;98172.20;105425;1257;110077;-76
2024/01/06 05:54:44;;;;;;;38.20;20.80;;;;;;;2.26;79.04;98172.27;105514;1257;96719;-74
2024/01/06 05:57:12;;;;;;;39.70;22.00;;;;;;;2.28;78.76;98170.75;105305;1256;107547;-73
2024/01/06 05:59:40;;;;;;;40.80;23.40;;;;;;;2.30;78.69;98172.77;105192;1257;96617;-74
2024/01/06 06:02:08;;;;;;;36.70;20.20;;;;;;;2.33;78.71;98175.41;105824;1256;96594;-74
2024/01/06 06:04:36;;;;;;;38.10;21.80;;;;;;;2.36;78.77;98179.80;105208;1260;109934;-74
2024/01/06 06:07:04;;;;;;;37.20;20.40;;;;;;;2.39;78.82;98177.19;105726;1256;96603;-73
2024/01/06 06:09:34;;;;;;;40.90;21.70;;;;;;;2.42;78.81;98177.73;105428;1257;107439;-74
2024/01/06 06:12:03;;;;;;;38.90;21.50;;;;;;;2.43;78.80;98173.29;106658;1256;96647;-74
2024/01/06 06:14:30;;;;;;;39.80;22.90;;;;;;;2.43;78.77;98172.96;105535;1255;96670;-74
2024/01/06 06:16:58;;;;;;;38.90;21.40;;;;;;;2.42;78.80;98175.95;105559;1256;109927;-73
2024/01/06 06:19:26;;;;;;;38.90;21.40;;;;;;;2.41;78.67;98178.65;105123;1266;96549;-74
2024/01/06 06:21:54;;;;;;;37.60;20.40;;;;;;;2.41;78.88;98183.20;105400;1254;107187;-74
2024/01/06 06:24:22;;;;;;;37.50;20.40;;;;;;;2.43;79.00;98190.63;105401;1256;96642;-74
2024/01/06 06:26:50;;;;;;;40.90;22.30;;;;;;;2.42;78.79;98190.30;105218;1257;96581;-74
2024/01/06 06:29:18;;;;;;;39.60;22.00;;;;;;;2.45;79.07;98193.14;105545;1256;109652;-73
2024/01/06 06:31:46;;;;;;;40.30;22.40;;;;;;;2.47;78.97;98187.27;105178;1266;97438;-76
2024/01/06 06:34:14;;;;;;;37.90;22.70;;;;;;;2.48;78.86;98180.52;105410;1257;107082;-74
2024/01/06 06:36:42;;;;;;;39.30;21.80;;;;;;;2.50;79.05;98187.11;105431;1264;97315;-75
2024/01/06 06:39:10;;;;;;;39.80;21.80;;;;;;;2.50;78.94;98185.33;105207;1254;96609;-74
2024/01/06 06:41:38;;;;;;;42.30;22.50;;;;;;;2.52;78.63;98182.04;105333;1257;109682;-74
2024/01/06 06:44:06;;;;;;;40.00;21.50;;;;;;;2.53;78.96;98183.75;105420;1256;97441;-77
2024/01/06 06:46:34;;;;;;;41.70;23.20;;;;;;;2.54;78.92;98185.13;105105;1267;107240;-73
2024/01/06 06:49:02;;;;;;;42.40;23.80;;;;;;;2.54;78.57;98188.97;105317;1257;97787;-74
2024/01/06 06:51:30;;;;;;;41.90;21.90;;;;;;;2.51;78.82;98194.01;105417;1258;96599;-73
2024/01/06 06:53:58;;;;;;;42.60;22.60;;;;;;;2.53;78.90;98193.42;105395;1257;110610;-74
2024/01/06 06:56:26;;;;;;;41.50;22.30;;;;;;;2.54;78.93;98191.77;104843;1257;96600;-73
2024/01/06 06:58:54;;;;;;;41.60;23.90;;;;;;;2.55;79.10;98194.00;105236;1252;107534;-74
2024/01/06 07:01:22;;;;;;;43.00;23.70;;;;;;;2.53;78.97;98191.29;105437;1260;96584;-74
2024/01/06 07:03:50;;;;;;;42.80;24.60;;;;;;;2.56;79.18;98194.30;105499;1253;96609;-74
2024/01/06 07:06:18;;;;;;;42.80;25.50;;;;;;;2.60;79.12;98198.63;105375;1257;107780;-73
2024/01/06 07:08:46;;;;;;;44.90;23.80;;;;;;;2.63;79.20;98200.23;105440;1256;96520;-74
2024/01/06 07:11:15;;;;;;;42.90;24.60;;;;;;;2.67;79.45;98197.20;105321;1256;108298;-73
2024/01/06 07:13:43;;;;;;;44.90;26.20;;;;;;;2.69;79.00;98194.80;105416;1256;97552;-74
2024/01/06 07:16:11;;;;;;;51.60;28.00;;;;;;;2.70;79.15;98191.27;105547;1257;96718;-73
2024/01/06 07:18:46;;;;;;;47.30;26.60;;;;;;;2.69;79.27;98197.77;105254;1255;109973;-73
2024/01/06 07:21:14;;;;;;;49.80;27.90;;;;;;;2.71;79.18;98206.27;105508;1259;96921;-73
2024/01/06 07:23:42;;;;;;;45.90;26.10;;;;;;;2.72;79.31;98210.63;105357;1258;107848;-71
2024/01/06 07:26:10;;;;;;;45.20;25.90;;;;;;;2.72;79.15;98208.70;105596;1264;96716;-73
2024/01/06 07:28:38;;;;;;;44.80;26.30;;;;;;;2.72;79.10;98209.70;105525;1257;97507;-72
2024/01/06 07:31:06;;;;;;;51.70;29.10;;;;;;;2.73;79.25;98211.76;105498;1256;110093;-73
2024/01/06 07:33:34;;;;;;;45.80;27.20;;;;;;;2.71;79.21;98215.20;105575;1256;97453;-73
2024/01/06 07:36:02;;;;;;;45.10;27.30;;;;;;;2.69;79.21;98221.10;105667;1258;107240;-73
2024/01/06 07:38:30;;;;;;;46.60;26.70;;;;;;;2.70;79.30;98215.25;105569;1254;96602;-73
2024/01/06 07:40:59;;;;;;;48.50;29.10;;;;;;;2.73;79.38;98212.47;105609;1252;97939;-73
2024/01/06 07:43:27;;;;;;;47.30;28.90;;;;;;;2.74;78.90;98207.52;105433;1256;109906;-73
2024/01/06 07:45:54;;;;;;;47.50;27.30;;;;;;;2.76;79.29;98216.49;105532;1257;96495;-73
2024/01/06 07:48:22;;;;;;;48.70;27.70;;;;;;;2.78;79.48;98218.70;105535;1257;106345;-74
2024/01/06 07:50:50;;;;;;;47.00;28.50;;;;;;;2.77;79.40;98217.84;105570;1257;96674;-73
2024/01/06 07:53:18;;;;;;;49.20;27.70;;;;;;;2.76;79.23;98215.30;105646;1257;96648;-73
2024/01/06 07:55:46;;;;;;;49.90;29.80;;;;;;;2.75;79.12;98216.54;105477;1257;109915;-73
2024/01/06 07:58:15;;;;;;;52.00;30.70;;;;;;;2.76;79.42;98218.42;105453;1259;96799;-77
2024/01/06 08:00:43;;;;;;;45.70;27.00;;;;;;;2.77;79.33;98226.10;105366;1253;108190;-77
2024/01/06 08:03:11;;;;;;;47.80;28.00;;;;;;;2.78;79.29;98229.02;105212;1266;96701;-78
2024/01/06 08:05:40;;;;;;;45.40;26.20;;;;;;;2.79;79.33;98228.96;105869;1257;96711;-75
2024/01/06 08:08:07;;;;;;;48.60;27.70;;;;;;;2.79;79.26;98225.77;105643;1257;110578;-74
2024/01/06 08:10:35;;;;;;;48.60;28.10;;;;;;;2.80;79.36;98224.32;105507;1255;96714;-74
2024/01/06 08:13:03;;;;;;;50.10;26.20;;;;;;;2.77;79.46;98222.73;105511;1257;107716;-73
2024/01/06 08:15:32;;;;;;;47.70;28.60;;;;;;;2.75;79.24;98219.73;105447;1254;96714;-72
2024/01/06 08:18:00;;;;;;;46.30;27.60;;;;;;;2.76;79.50;98222.09;104913;1254;97096;-74
2024/01/06 08:20:28;;;;;;;45.70;25.70;;;;;;;2.79;79.45;98221.07;105336;1267;110375;-72
2024/01/06 08:22:56;;;;;;;49.40;28.30;;;;;;;2.81;79.55;98224.13;105423;1256;97921;-76
2024/01/06 08:25:25;;;;;;;50.90;30.00;;;;;;;2.80;79.49;98226.81;105526;1260;107585;-75
2024/01/06 08:27:52;;;;;;;50.50;29.20;;;;;;;2.82;79.55;98228.95;105628;1254;96606;-82
2024/01/06 08:30:20;;;;;;;48.90;27.60;;;;;;;2.82;79.68;98227.39;105492;1257;96578;-73
2024/01/06 08:32:49;;;;;;;47.40;27.80;;;;;;;2.81;79.48;98227.77;105743;1257;109542;-73
2024/01/06 08:35:17;;;;;;;48.20;27.70;;;;;;;2.82;79.44;98228.63;105712;1257;97916;-73
2024/01/06 08:37:45;;;;;;;47.30;28.10;;;;;;;2.81;79.78;98230.78;105588;1258;107618;-76
2024/01/06 08:40:13;;;;;;;48.30;27.80;;;;;;;2.79;79.70;98237.86;105612;1257;96622;-74
2024/01/06 08:42:41;;;;;;;52.00;28.10;;;;;;;2.79;79.61;98242.07;105593;1254;96581;-74
2024/01/06 08:45:09;;;;;;;48.40;26.90;;;;;;;2.79;79.86;98243.85;105338;1258;109926;-75
2024/01/06 08:47:37;;;;;;;46.70;27.50;;;;;;;2.76;79.81;98243.65;105360;1256;97953;-75
2024/01/06 08:50:06;;;;;;;47.90;29.00;;;;;;;2.76;79.86;98246.09;105595;1259;108075;-77
2024/01/06 08:52:34;;;;;;;49.00;28.00;;;;;;;2.75;79.63;98246.30;105821;1267;96977;-75
2024/01/06 08:55:02;;;;;;;51.70;28.30;;;;;;;2.76;79.87;98247.69;105213;1257;96527;-76
2024/01/06 08:57:30;;;;;;;50.40;28.30;;;;;;;2.77;79.89;98250.24;105461;1256;109918;-73
2024/01/06 08:59:58;;;;;;;46.80;26.00;;;;;;;2.78;79.54;98251.23;105738;1257;96597;-76
2024/01/06 09:02:26;;;;;;;53.00;27.60;;;;;;;2.81;79.70;98249.88;105786;1257;107250;-74
2024/01/06 09:04:54;;;;;;;51.20;29.00;;;;;;;2.82;79.72;98245.57;105425;1257;97170;-77
2024/01/06 09:07:22;;;;;;;47.10;29.20;;;;;;;2.86;79.93;98240.30;105351;1254;96708;-77
2024/01/06 09:09:51;;;;;;;50.10;28.00;;;;;;;2.90;79.62;98235.89;105474;1256;108110;-80
2024/01/06 09:12:19;;;;;;;50.90;30.30;;;;;;;2.94;79.56;98237.95;105629;1254;97536;-80
2024/01/06 09:14:47;;;;;;;55.60;30.90;;;;;;;2.99;79.86;98237.34;105419;1257;108649;-76
2024/01/06 09:17:16;;;;;;;56.90;32.20;;;;;;;3.05;79.96;98234.56;105416;1258;96615;-74
2024/01/06 09:19:43;;;;;;;60.90;34.50;;;;;;;3.09;79.67;98233.27;105478;1257;96600;-71
2024/01/06 09:22:13;;;;;;;55.50;32.30;;;;;;;3.12;80.03;98233.80;105664;1256;107737;-76
2024/01/06 09:24:40;;;;;;;57.30;31.40;;;;;;;3.16;79.90;98229.73;105581;1266;97945;-75
2024/01/06 09:27:08;;;;;;;69.10;34.00;;;;;;;3.23;80.00;98232.83;105207;1257;105980;-74
2024/01/06 09:29:36;;;;;;;52.50;30.90;;;;;;;3.30;79.94;98229.45;105603;1257;96613;-79
2024/01/06 09:32:04;;;;;;;54.80;32.30;;;;;;;3.38;80.11;98226.96;105536;1257;97593;-75
2024/01/06 09:34:32;;;;;;;53.00;31.30;;;;;;;3.44;80.04;98226.07;105374;1266;109899;-74
2024/01/06 09:37:05;;;;;;;56.90;31.40;;;;;;;3.51;80.01;98226.55;105439;1256;96565;-72
2024/01/06 09:39:32;;;;;;;51.60;28.40;;;;;;;3.57;80.22;98227.95;108705;1254;107203;-74
2024/01/06 09:42:01;;;;;;;54.40;29.80;;;;;;;3.65;80.19;98226.11;108589;1253;94558;-78
2024/01/06 09:44:29;;;;;;;52.10;28.50;;;;;;;3.73;80.19;98226.02;108709;1254;94283;-79
2024/01/06 09:46:59;;;;;;;53.60;29.60;;;;;;;3.80;80.20;98231.02;108588;1253;110087;-79
2024/01/06 09:49:29;;;;;;;50.80;29.20;;;;;;;3.88;80.13;98231.62;107942;1254;96749;-79
2024/01/06 09:52:01;;;;;;;50.60;28.80;;;;;;;3.93;80.10;98233.77;105532;1258;107611;-78
2024/01/06 09:54:33;;;;;;;47.00;26.80;;;;;;;3.99;80.10;98233.25;105454;1257;96607;-80
2024/01/06 09:57:05;;;;;;;51.60;29.90;;;;;;;4.06;80.06;98233.90;105543;1254;96601;-79
2024/01/06 09:59:36;;;;;;;46.80;27.10;;;;;;;4.09;80.01;98224.58;105631;1257;109896;-81
2024/01/06 10:02:05;;;;;;;49.80;28.40;;;;;;;4.14;80.16;98221.17;105984;1254;97514;-79
2024/01/06 10:04:32;;;;;;;52.90;30.10;;;;;;;4.18;80.14;98214.44;106616;1254;107620;-81
2024/01/06 10:07:01;;;;;;;73.70;46.70;;;;;;;4.21;80.11;98213.02;105942;1254;97489;-81
2024/01/06 10:09:28;;;;;;;51.20;29.60;;;;;;;4.22;80.18;98209.30;105841;1256;97918;-81
2024/01/06 10:11:57;;;;;;;52.00;30.90;;;;;;;4.25;80.07;98209.64;105425;1254;109882;-78
2024/01/06 10:14:25;;;;;;;56.20;31.80;;;;;;;4.25;80.18;98206.27;105519;1258;96573;-79
2024/01/06 10:16:53;;;;;;;62.30;34.50;;;;;;;4.26;80.08;98202.34;105605;1267;107113;-78
2024/01/06 10:19:23;;;;;;;67.30;40.10;;;;;;;4.26;80.11;98200.10;105137;1260;96703;-77
2024/01/06 10:21:51;;;;;;;70.10;41.20;;;;;;;4.23;80.19;98195.36;105354;1255;96779;-77
2024/01/06 10:24:20;;;;;;;72.10;42.20;;;;;;;4.21;80.08;98192.69;105751;1257;109949;-79
2024/01/06 10:26:47;;;;;;;68.70;41.90;;;;;;;4.21;80.14;98190.91;105692;1254;96587;-79
2024/01/06 10:29:15;;;;;;;70.50;42.40;;;;;;;4.21;80.23;98185.16;105520;1257;107699;-80
2024/01/06 10:31:44;;;;;;;75.90;49.20;;;;;;;4.19;80.41;98181.36;105194;1257;97245;-79
2024/01/06 10:34:11;;;;;;;69.90;44.20;;;;;;;4.18;80.12;98184.21;105508;1255;97863;-77
2024/01/06 10:36:39;;;;;;;68.70;43.90;;;;;;;4.20;80.18;98189.21;105261;1265;109931;-79
2024/01/06 10:39:09;;;;;;;68.60;42.70;;;;;;;4.20;80.25;98193.56;105340;1254;97929;-78
2024/01/06 10:41:40;;;;;;;71.70;43.10;;;;;;;4.22;80.35;98193.31;105488;1257;107636;-78
2024/01/06 10:44:09;;;;;;;73.50;47.60;;;;;;;4.22;80.12;98193.67;105459;1256;96661;-78
2024/01/06 10:46:39;;;;;;;73.70;43.70;;;;;;;4.22;80.27;98189.65;107183;1256;96550;-77
2024/01/06 10:49:12;;;;;;;69.20;42.20;;;;;;;4.22;80.25;98185.41;106602;1253;111692;-80
2024/01/06 10:51:41;;;;;;;71.30;43.40;;;;;;;4.21;80.26;98175.98;105245;1257;96974;-75
2024/01/06 10:54:09;;;;;;;72.90;44.20;;;;;;;4.21;80.20;98182.63;105559;1254;107772;-76
2024/01/06 10:56:38;;;;;;;68.90;41.40;;;;;;;4.23;80.35;98188.35;105376;1267;96632;-76
2024/01/06 10:59:07;;;;;;;70.30;43.30;;;;;;;4.25;80.31;98183.30;105518;1253;97517;-77
2024/01/06 11:03:37;;;;;;;63.00;35.70;;;;;;;4.30;80.45;98176.31;102414;1290;637085;-80
2024/01/06 11:06:11;;;;;;;60.80;34.10;;;;;;;4.27;80.57;98174.56;104880;1267;94341;-80
2024/01/06 11:08:49;;;;;;;60.60;34.80;;;;;;;4.27;80.26;98171.74;105033;1268;94242;-79
2024/01/06 11:11:21;;;;;;;58.30;34.80;;;;;;;4.27;80.41;98170.17;104753;1269;107799;-81
2024/01/06 11:13:49;;;;;;;61.10;34.90;;;;;;;4.25;80.35;98167.31;104794;1263;95495;-81
2024/01/06 11:16:37;;;;;;;56.70;32.40;;;;;;;4.25;80.58;98170.27;104771;1260;123544;-78
2024/01/06 11:19:34;;;;;;;57.20;34.40;;;;;;;4.26;80.34;98166.02;104866;1266;94302;-73
2024/01/06 11:22:18;;;;;;;54.80;32.10;;;;;;;4.25;80.46;98159.44;104901;1266;94248;-73